sensor_id;sensor_type;location;lat;lon;timestamp;pressure;altitude;pressure_sealevel;temperature;humidity
17781;BME280;8498;52.516;13.790;2023-04-09T00:05:07;102176.59;;;4.59;89.01
17781;BME280;8498;52.516;13.790;2023-04-09T00:10:32;102181.16;;;4.50;89.05
17781;BME280;8498;52.516;13.790;2023-04-09T00:15:54;102180.41;;;4.43;88.44
17781;BME280;8498;52.516;13.790;2023-04-09T00:21:17;102180.63;;;4.32;89.22
17781;BME280;8498;52.516;13.790;2023-04-09T00:26:39;102178.13;;;4.25;89.32
17781;BME280;8498;52.516;13.790;2023-04-09T00:32:02;102185.25;;;4.18;88.77
17781;BME280;8498;52.516;13.790;2023-04-09T00:37:24;102183.47;;;4.20;88.36
17781;BME280;8498;52.516;13.790;2023-04-09T00:42:46;102175.00;;;4.03;88.92
17781;BME280;8498;52.516;13.790;2023-04-09T00:48:10;102182.97;;;3.98;88.76
17781;BME280;8498;52.516;13.790;2023-04-09T00:53:33;102176.88;;;3.95;88.95
17781;BME280;8498;52.516;13.790;2023-04-09T00:58:56;102183.28;;;3.80;88.96
17781;BME280;8498;52.516;13.790;2023-04-09T01:04:18;102190.28;;;3.81;89.03
17781;BME280;8498;52.516;13.790;2023-04-09T01:09:49;102179.22;;;3.59;89.52
17781;BME280;8498;52.516;13.790;2023-04-09T01:15:24;102173.22;;;3.51;90.00
17781;BME280;8498;52.516;13.790;2023-04-09T01:21:15;102172.56;;;3.37;90.53
17781;BME280;8498;52.516;13.790;2023-04-09T01:26:53;102177.69;;;3.43;90.33
17781;BME280;8498;52.516;13.790;2023-04-09T01:32:23;102176.88;;;3.41;90.09
17781;BME280;8498;52.516;13.790;2023-04-09T01:37:47;102183.75;;;3.50;89.00
17781;BME280;8498;52.516;13.790;2023-04-09T01:43:11;102189.00;;;3.50;88.84
17781;BME280;8498;52.516;13.790;2023-04-09T01:48:34;102193.59;;;3.34;89.06
17781;BME280;8498;52.516;13.790;2023-04-09T01:53:59;102188.44;;;3.29;89.12
17781;BME280;8498;52.516;13.790;2023-04-09T01:59:21;102179.72;;;3.24;89.25
17781;BME280;8498;52.516;13.790;2023-04-09T02:04:46;102180.81;;;3.11;89.15
17781;BME280;8498;52.516;13.790;2023-04-09T02:10:10;102185.38;;;2.95;89.94
17781;BME280;8498;52.516;13.790;2023-04-09T02:15:35;102188.09;;;2.89;89.84
17781;BME280;8498;52.516;13.790;2023-04-09T02:21:00;102197.78;;;2.81;89.93
17781;BME280;8498;52.516;13.790;2023-04-09T02:26:22;102193.41;;;2.80;90.01
17781;BME280;8498;52.516;13.790;2023-04-09T02:31:45;102197.00;;;2.73;89.64
17781;BME280;8498;52.516;13.790;2023-04-09T02:37:07;102196.31;;;2.59;90.63
17781;BME280;8498;52.516;13.790;2023-04-09T02:42:29;102192.75;;;2.63;91.94
17781;BME280;8498;52.516;13.790;2023-04-09T02:47:52;102188.41;;;2.62;91.99
17781;BME280;8498;52.516;13.790;2023-04-09T02:53:15;102184.88;;;2.65;92.09
17781;BME280;8498;52.516;13.790;2023-04-09T02:58:37;102190.16;;;2.62;92.06
17781;BME280;8498;52.516;13.790;2023-04-09T03:04:00;102184.97;;;2.55;91.38
17781;BME280;8498;52.516;13.790;2023-04-09T03:09:23;102185.78;;;2.61;90.62
17781;BME280;8498;52.516;13.790;2023-04-09T03:14:45;102176.97;;;2.69;90.92
17781;BME280;8498;52.516;13.790;2023-04-09T03:20:11;102182.00;;;2.84;91.43
17781;BME280;8498;52.516;13.790;2023-04-09T03:25:33;102173.91;;;3.03;91.54
17781;BME280;8498;52.516;13.790;2023-04-09T03:31:04;102171.22;;;3.09;93.07
17781;BME280;8498;52.516;13.790;2023-04-09T03:36:31;102172.72;;;3.25;94.44
17781;BME280;8498;52.516;13.790;2023-04-09T03:41:58;102176.91;;;3.38;95.95
17781;BME280;8498;52.516;13.790;2023-04-09T03:47:25;102174.25;;;3.41;96.53
17781;BME280;8498;52.516;13.790;2023-04-09T03:52:48;102175.94;;;3.45;98.10
17781;BME280;8498;52.516;13.790;2023-04-09T03:58:12;102175.63;;;3.63;98.63
17781;BME280;8498;52.516;13.790;2023-04-09T04:03:35;102172.06;;;3.69;99.39
17781;BME280;8498;52.516;13.790;2023-04-09T04:09:13;102178.88;;;3.81;100.00
17781;BME280;8498;52.516;13.790;2023-04-09T04:14:44;102179.66;;;3.86;100.00
17781;BME280;8498;52.516;13.790;2023-04-09T04:20:26;102182.97;;;3.98;100.00
17781;BME280;8498;52.516;13.790;2023-04-09T04:25:57;102188.06;;;4.07;100.00
17781;BME280;8498;52.516;13.790;2023-04-09T04:31:25;102184.28;;;4.24;100.00
17781;BME280;8498;52.516;13.790;2023-04-09T04:36:51;102193.72;;;4.35;100.00
17781;BME280;8498;52.516;13.790;2023-04-09T04:42:14;102193.41;;;4.51;100.00
17781;BME280;8498;52.516;13.790;2023-04-09T04:47:39;102198.47;;;4.61;100.00
17781;BME280;8498;52.516;13.790;2023-04-09T04:53:01;102192.03;;;4.77;100.00
17781;BME280;8498;52.516;13.790;2023-04-09T04:58:29;102204.16;;;4.85;100.00
17781;BME280;8498;52.516;13.790;2023-04-09T05:03:54;102203.06;;;4.96;100.00
17781;BME280;8498;52.516;13.790;2023-04-09T05:09:28;102204.41;;;5.15;100.00
17781;BME280;8498;52.516;13.790;2023-04-09T05:14:57;102207.53;;;5.33;100.00
17781;BME280;8498;52.516;13.790;2023-04-09T05:20:19;102209.25;;;5.34;100.00
17781;BME280;8498;52.516;13.790;2023-04-09T05:25:51;102212.59;;;5.42;100.00
17781;BME280;8498;52.516;13.790;2023-04-09T05:31:28;102197.56;;;5.47;100.00
17781;BME280;8498;52.516;13.790;2023-04-09T05:36:57;102202.63;;;5.56;100.00
17781;BME280;8498;52.516;13.790;2023-04-09T05:42:20;102200.13;;;5.50;100.00
17781;BME280;8498;52.516;13.790;2023-04-09T05:47:59;102196.22;;;5.66;100.00
17781;BME280;8498;52.516;13.790;2023-04-09T05:53:22;102203.88;;;5.77;100.00
17781;BME280;8498;52.516;13.790;2023-04-09T05:58:44;102212.44;;;5.88;100.00
17781;BME280;8498;52.516;13.790;2023-04-09T06:04:06;102206.84;;;6.02;100.00
17781;BME280;8498;52.516;13.790;2023-04-09T06:09:29;102209.53;;;5.99;100.00
17781;BME280;8498;52.516;13.790;2023-04-09T06:14:52;102207.72;;;6.01;100.00
17781;BME280;8498;52.516;13.790;2023-04-09T06:20:14;102216.53;;;6.00;100.00
17781;BME280;8498;52.516;13.790;2023-04-09T06:25:37;102215.41;;;6.10;100.00
17781;BME280;8498;52.516;13.790;2023-04-09T06:31:00;102221.06;;;6.30;100.00
17781;BME280;8498;52.516;13.790;2023-04-09T06:36:22;102217.00;;;6.49;100.00
17781;BME280;8498;52.516;13.790;2023-04-09T06:41:45;102223.56;;;6.67;100.00
17781;BME280;8498;52.516;13.790;2023-04-09T06:47:38;102216.25;;;6.77;100.00
17781;BME280;8498;52.516;13.790;2023-04-09T06:53:01;102231.50;;;6.98;100.00
17781;BME280;8498;52.516;13.790;2023-04-09T06:58:23;102218.88;;;7.08;100.00
17781;BME280;8498;52.516;13.790;2023-04-09T07:03:46;102227.63;;;7.10;100.00
17781;BME280;8498;52.516;13.790;2023-04-09T07:09:09;102230.88;;;7.19;100.00
17781;BME280;8498;52.516;13.790;2023-04-09T07:14:31;102236.94;;;7.23;100.00
17781;BME280;8498;52.516;13.790;2023-04-09T07:19:54;102235.53;;;7.41;100.00
17781;BME280;8498;52.516;13.790;2023-04-09T07:25:16;102236.91;;;7.54;100.00
17781;BME280;8498;52.516;13.790;2023-04-09T07:30:39;102232.16;;;7.65;100.00
17781;BME280;8498;52.516;13.790;2023-04-09T07:36:01;102231.03;;;7.72;99.81
17781;BME280;8498;52.516;13.790;2023-04-09T07:41:24;102231.47;;;7.86;100.00
17781;BME280;8498;52.516;13.790;2023-04-09T07:46:46;102238.19;;;7.96;98.84
17781;BME280;8498;52.516;13.790;2023-04-09T07:52:09;102233.41;;;8.07;98.45
17781;BME280;8498;52.516;13.790;2023-04-09T07:57:32;102239.81;;;8.27;98.32
17781;BME280;8498;52.516;13.790;2023-04-09T08:02:54;102239.38;;;8.14;97.38
17781;BME280;8498;52.516;13.790;2023-04-09T08:08:17;102252.03;;;8.04;95.90
17781;BME280;8498;52.516;13.790;2023-04-09T08:13:40;102261.63;;;8.08;95.75
17781;BME280;8498;52.516;13.790;2023-04-09T08:19:03;102246.09;;;8.24;95.44
17781;BME280;8498;52.516;13.790;2023-04-09T08:24:25;102251.78;;;8.40;95.25
17781;BME280;8498;52.516;13.790;2023-04-09T08:29:48;102249.72;;;8.48;94.45
17781;BME280;8498;52.516;13.790;2023-04-09T08:35:10;102248.34;;;8.36;94.80
17781;BME280;8498;52.516;13.790;2023-04-09T08:40:34;102251.09;;;8.60;95.15
17781;BME280;8498;52.516;13.790;2023-04-09T08:45:57;102253.94;;;8.54;93.79
17781;BME280;8498;52.516;13.790;2023-04-09T08:51:22;102252.38;;;8.73;94.31
17781;BME280;8498;52.516;13.790;2023-04-09T08:56:48;102257.63;;;8.74;93.38
17781;BME280;8498;52.516;13.790;2023-04-09T09:02:10;102264.44;;;8.81;92.98
17781;BME280;8498;52.516;13.790;2023-04-09T09:07:34;102262.03;;;8.74;93.44
17781;BME280;8498;52.516;13.790;2023-04-09T09:12:56;102254.78;;;9.04;93.57
17781;BME280;8498;52.516;13.790;2023-04-09T09:18:18;102260.69;;;9.12;92.42
17781;BME280;8498;52.516;13.790;2023-04-09T09:23:41;102244.28;;;9.24;90.75
17781;BME280;8498;52.516;13.790;2023-04-09T09:29:03;102250.91;;;9.36;90.40
17781;BME280;8498;52.516;13.790;2023-04-09T09:34:26;102246.88;;;9.49;89.54
17781;BME280;8498;52.516;13.790;2023-04-09T09:39:49;102250.72;;;9.42;87.45
17781;BME280;8498;52.516;13.790;2023-04-09T09:45:18;102256.47;;;9.30;87.97
17781;BME280;8498;52.516;13.790;2023-04-09T09:50:41;102260.09;;;9.50;88.01
17781;BME280;8498;52.516;13.790;2023-04-09T09:56:05;102250.28;;;9.76;87.30
17781;BME280;8498;52.516;13.790;2023-04-09T10:01:27;102243.34;;;9.72;86.50
17781;BME280;8498;52.516;13.790;2023-04-09T10:06:50;102244.06;;;9.97;86.13
17781;BME280;8498;52.516;13.790;2023-04-09T10:12:15;102246.06;;;10.14;85.48
17781;BME280;8498;52.516;13.790;2023-04-09T10:17:38;102244.72;;;10.46;84.35
17781;BME280;8498;52.516;13.790;2023-04-09T10:23:05;102239.16;;;10.52;84.07
17781;BME280;8498;52.516;13.790;2023-04-09T10:28:31;102231.44;;;10.66;83.73
17781;BME280;8498;52.516;13.790;2023-04-09T10:34:04;102231.91;;;11.15;80.34
17781;BME280;8498;52.516;13.790;2023-04-09T10:39:27;102229.84;;;11.40;78.75
17781;BME280;8498;52.516;13.790;2023-04-09T10:45:11;102219.22;;;11.95;77.67
17781;BME280;8498;52.516;13.790;2023-04-09T10:50:35;102215.34;;;11.64;77.81
17781;BME280;8498;52.516;13.790;2023-04-09T10:56:04;102218.31;;;11.77;77.24
17781;BME280;8498;52.516;13.790;2023-04-09T11:01:35;102208.72;;;11.92;75.85
17781;BME280;8498;52.516;13.790;2023-04-09T11:06:59;102209.56;;;11.73;77.00
17781;BME280;8498;52.516;13.790;2023-04-09T11:12:23;102205.00;;;12.13;75.45
17781;BME280;8498;52.516;13.790;2023-04-09T11:17:48;102203.06;;;12.84;73.58
17781;BME280;8498;52.516;13.790;2023-04-09T11:23:12;102195.63;;;13.06;72.38
17781;BME280;8498;52.516;13.790;2023-04-09T11:28:34;102200.06;;;12.90;72.99
17781;BME280;8498;52.516;13.790;2023-04-09T11:33:57;102197.84;;;12.98;72.19
17781;BME280;8498;52.516;13.790;2023-04-09T11:39:20;102194.50;;;13.59;69.46
17781;BME280;8498;52.516;13.790;2023-04-09T11:44:45;102195.53;;;14.02;67.49
17781;BME280;8498;52.516;13.790;2023-04-09T11:50:09;102194.59;;;14.03;67.63
17781;BME280;8498;52.516;13.790;2023-04-09T11:55:32;102199.94;;;14.77;64.57
17781;BME280;8498;52.516;13.790;2023-04-09T12:00:57;102198.34;;;15.03;64.23
17781;BME280;8498;52.516;13.790;2023-04-09T12:06:20;102190.66;;;14.54;66.52
17781;BME280;8498;52.516;13.790;2023-04-09T12:11:44;102200.25;;;14.73;64.61
17781;BME280;8498;52.516;13.790;2023-04-09T12:17:07;102201.84;;;15.18;63.39
17781;BME280;8498;52.516;13.790;2023-04-09T12:22:29;102190.44;;;15.42;62.30
17781;BME280;8498;52.516;13.790;2023-04-09T12:27:53;102185.78;;;15.32;60.77
17781;BME280;8498;52.516;13.790;2023-04-09T12:33:16;102184.97;;;15.58;62.62
17781;BME280;8498;52.516;13.790;2023-04-09T12:38:39;102178.88;;;15.83;60.39
17781;BME280;8498;52.516;13.790;2023-04-09T12:44:01;102177.88;;;15.98;60.58
17781;BME280;8498;52.516;13.790;2023-04-09T12:49:24;102174.78;;;16.69;57.18
17781;BME280;8498;52.516;13.790;2023-04-09T12:54:46;102168.81;;;17.51;55.19
17781;BME280;8498;52.516;13.790;2023-04-09T13:00:10;102161.88;;;16.09;56.80
17781;BME280;8498;52.516;13.790;2023-04-09T13:05:33;102151.78;;;16.40;57.75
17781;BME280;8498;52.516;13.790;2023-04-09T13:10:56;102149.19;;;17.38;55.22
17781;BME280;8498;52.516;13.790;2023-04-09T13:16:18;102138.28;;;16.67;56.63
17781;BME280;8498;52.516;13.790;2023-04-09T13:21:41;102134.47;;;16.44;57.76
17781;BME280;8498;52.516;13.790;2023-04-09T13:27:04;102122.66;;;16.21;56.70
17781;BME280;8498;52.516;13.790;2023-04-09T13:32:27;102123.00;;;16.17;58.37
17781;BME280;8498;52.516;13.790;2023-04-09T13:37:50;102116.34;;;16.73;56.28
17781;BME280;8498;52.516;13.790;2023-04-09T13:43:12;102114.44;;;16.62;54.37
17781;BME280;8498;52.516;13.790;2023-04-09T13:48:34;102113.97;;;16.43;55.41
17781;BME280;8498;52.516;13.790;2023-04-09T13:53:57;102109.28;;;16.72;53.69
17781;BME280;8498;52.516;13.790;2023-04-09T13:59:19;102103.59;;;16.76;54.72
17781;BME280;8498;52.516;13.790;2023-04-09T14:04:41;102095.19;;;17.30;53.98
17781;BME280;8498;52.516;13.790;2023-04-09T14:10:04;102094.34;;;17.17;52.68
17781;BME280;8498;52.516;13.790;2023-04-09T14:15:27;102104.16;;;17.05;53.12
17781;BME280;8498;52.516;13.790;2023-04-09T14:20:50;102105.63;;;17.22;53.07
17781;BME280;8498;52.516;13.790;2023-04-09T14:26:13;102090.38;;;17.46;53.15
17781;BME280;8498;52.516;13.790;2023-04-09T14:31:35;102089.16;;;17.63;52.23
17781;BME280;8498;52.516;13.790;2023-04-09T14:36:58;102072.09;;;17.86;51.77
17781;BME280;8498;52.516;13.790;2023-04-09T14:42:20;102073.78;;;18.22;51.56
17781;BME280;8498;52.516;13.790;2023-04-09T14:47:42;102065.19;;;17.95;51.19
17781;BME280;8498;52.516;13.790;2023-04-09T14:53:05;102059.41;;;17.53;51.77
17781;BME280;8498;52.516;13.790;2023-04-09T14:58:27;102054.88;;;17.89;51.60
17781;BME280;8498;52.516;13.790;2023-04-09T15:03:50;102056.53;;;18.03;50.80
17781;BME280;8498;52.516;13.790;2023-04-09T15:09:13;102052.91;;;17.80;50.71
17781;BME280;8498;52.516;13.790;2023-04-09T15:14:36;102055.13;;;17.75;50.97
17781;BME280;8498;52.516;13.790;2023-04-09T15:19:58;102054.28;;;17.85;50.65
17781;BME280;8498;52.516;13.790;2023-04-09T15:25:20;102060.06;;;17.44;50.50
17781;BME280;8498;52.516;13.790;2023-04-09T15:30:44;102052.47;;;17.38;50.11
17781;BME280;8498;52.516;13.790;2023-04-09T15:36:07;102053.50;;;17.01;51.31
17781;BME280;8498;52.516;13.790;2023-04-09T15:41:30;102054.53;;;16.74;52.26
17781;BME280;8498;52.516;13.790;2023-04-09T15:46:53;102052.19;;;16.32;52.33
17781;BME280;8498;52.516;13.790;2023-04-09T15:52:16;102043.72;;;15.87;54.43
17781;BME280;8498;52.516;13.790;2023-04-09T15:57:38;102046.34;;;15.62;54.56
17781;BME280;8498;52.516;13.790;2023-04-09T16:03:00;102042.50;;;15.66;54.77
17781;BME280;8498;52.516;13.790;2023-04-09T16:08:24;102044.44;;;15.50;55.84
17781;BME280;8498;52.516;13.790;2023-04-09T16:13:46;102043.81;;;15.46;56.31
17781;BME280;8498;52.516;13.790;2023-04-09T16:19:09;102040.75;;;15.25;56.70
17781;BME280;8498;52.516;13.790;2023-04-09T16:24:31;102043.44;;;14.84;57.96
17781;BME280;8498;52.516;13.790;2023-04-09T16:29:53;102043.13;;;14.89;57.74
17781;BME280;8498;52.516;13.790;2023-04-09T16:35:15;102042.78;;;14.81;58.56
17781;BME280;8498;52.516;13.790;2023-04-09T16:40:38;102040.09;;;14.66;59.32
17781;BME280;8498;52.516;13.790;2023-04-09T16:46:00;102046.81;;;14.59;60.22
17781;BME280;8498;52.516;13.790;2023-04-09T16:51:23;102050.94;;;14.51;60.69
17781;BME280;8498;52.516;13.790;2023-04-09T16:56:45;102051.94;;;14.34;61.60
17781;BME280;8498;52.516;13.790;2023-04-09T17:02:09;102049.63;;;14.14;62.05
17781;BME280;8498;52.516;13.790;2023-04-09T17:07:34;102046.50;;;14.07;62.63
17781;BME280;8498;52.516;13.790;2023-04-09T17:12:56;102039.69;;;13.87;63.71
17781;BME280;8498;52.516;13.790;2023-04-09T17:18:19;102043.47;;;13.69;63.65
17781;BME280;8498;52.516;13.790;2023-04-09T17:23:41;102050.31;;;13.59;63.81
17781;BME280;8498;52.516;13.790;2023-04-09T17:29:05;102061.00;;;13.43;64.49
17781;BME280;8498;52.516;13.790;2023-04-09T17:34:27;102071.09;;;13.22;65.31
17781;BME280;8498;52.516;13.790;2023-04-09T17:39:50;102083.66;;;13.05;66.32
17781;BME280;8498;52.516;13.790;2023-04-09T17:45:12;102075.56;;;12.75;68.41
17781;BME280;8498;52.516;13.790;2023-04-09T17:50:38;102076.28;;;12.45;71.39
17781;BME280;8498;52.516;13.790;2023-04-09T17:56:00;102070.28;;;12.25;72.81
17781;BME280;8498;52.516;13.790;2023-04-09T18:01:25;102084.34;;;11.94;74.49
17781;BME280;8498;52.516;13.790;2023-04-09T18:06:47;102079.28;;;11.70;75.92
17781;BME280;8498;52.516;13.790;2023-04-09T18:12:10;102092.97;;;11.63;78.24
17781;BME280;8498;52.516;13.790;2023-04-09T18:17:32;102095.22;;;11.53;78.28
17781;BME280;8498;52.516;13.790;2023-04-09T18:22:54;102101.47;;;11.35;79.04
17781;BME280;8498;52.516;13.790;2023-04-09T18:28:17;102101.56;;;11.15;80.15
17781;BME280;8498;52.516;13.790;2023-04-09T18:33:40;102098.91;;;10.96;80.71
17781;BME280;8498;52.516;13.790;2023-04-09T18:39:02;102108.91;;;10.72;82.04
17781;BME280;8498;52.516;13.790;2023-04-09T18:44:26;102107.66;;;10.60;82.40
17781;BME280;8498;52.516;13.790;2023-04-09T18:49:48;102112.59;;;10.49;83.07
17781;BME280;8498;52.516;13.790;2023-04-09T18:55:11;102108.03;;;10.33;83.79
17781;BME280;8498;52.516;13.790;2023-04-09T19:00:35;102115.75;;;10.18;84.35
17781;BME280;8498;52.516;13.790;2023-04-09T19:05:57;102118.34;;;9.98;84.67
17781;BME280;8498;52.516;13.790;2023-04-09T19:11:21;102127.22;;;9.77;85.30
17781;BME280;8498;52.516;13.790;2023-04-09T19:16:43;102128.06;;;9.57;86.45
17781;BME280;8498;52.516;13.790;2023-04-09T19:22:06;102123.19;;;9.46;86.79
17781;BME280;8498;52.516;13.790;2023-04-09T19:27:28;102120.19;;;9.34;86.41
17781;BME280;8498;52.516;13.790;2023-04-09T19:32:51;102109.19;;;9.21;86.99
17781;BME280;8498;52.516;13.790;2023-04-09T19:38:15;102119.81;;;8.98;88.38
17781;BME280;8498;52.516;13.790;2023-04-09T19:43:38;102119.47;;;8.83;89.14
17781;BME280;8498;52.516;13.790;2023-04-09T19:49:02;102115.34;;;8.76;88.05
17781;BME280;8498;52.516;13.790;2023-04-09T19:54:25;102119.22;;;8.68;87.30
17781;BME280;8498;52.516;13.790;2023-04-09T19:59:47;102123.28;;;8.53;87.40
17781;BME280;8498;52.516;13.790;2023-04-09T20:05:11;102123.63;;;8.44;87.58
17781;BME280;8498;52.516;13.790;2023-04-09T20:10:37;102125.06;;;8.28;88.76
17781;BME280;8498;52.516;13.790;2023-04-09T20:16:01;102129.16;;;8.11;89.45
17781;BME280;8498;52.516;13.790;2023-04-09T20:21:23;102131.19;;;8.03;88.67
17781;BME280;8498;52.516;13.790;2023-04-09T20:26:46;102128.06;;;7.92;89.13
17781;BME280;8498;52.516;13.790;2023-04-09T20:32:08;102124.81;;;7.84;89.58
17781;BME280;8498;52.516;13.790;2023-04-09T20:37:31;102124.31;;;7.73;89.10
17781;BME280;8498;52.516;13.790;2023-04-09T20:42:53;102123.69;;;7.65;88.92
17781;BME280;8498;52.516;13.790;2023-04-09T20:48:15;102130.22;;;7.55;89.51
17781;BME280;8498;52.516;13.790;2023-04-09T20:53:39;102135.06;;;7.41;90.47
17781;BME280;8498;52.516;13.790;2023-04-09T20:59:01;102130.88;;;7.33;90.59
17781;BME280;8498;52.516;13.790;2023-04-09T21:04:25;102126.50;;;7.32;89.24
17781;BME280;8498;52.516;13.790;2023-04-09T21:09:48;102119.06;;;7.17;89.91
17781;BME280;8498;52.516;13.790;2023-04-09T21:15:10;102125.66;;;7.04;91.26
17781;BME280;8498;52.516;13.790;2023-04-09T21:20:32;102114.50;;;6.94;91.16
17781;BME280;8498;52.516;13.790;2023-04-09T21:25:55;102111.03;;;6.92;91.09
17781;BME280;8498;52.516;13.790;2023-04-09T21:31:18;102121.88;;;6.83;90.64
17781;BME280;8498;52.516;13.790;2023-04-09T21:36:40;102121.91;;;6.82;90.42
17781;BME280;8498;52.516;13.790;2023-04-09T21:42:03;102123.16;;;6.69;90.28
17781;BME280;8498;52.516;13.790;2023-04-09T21:47:27;102122.56;;;6.59;89.85
17781;BME280;8498;52.516;13.790;2023-04-09T21:52:50;102112.28;;;6.50;89.83
17781;BME280;8498;52.516;13.790;2023-04-09T21:58:12;102124.91;;;6.39;89.82
17781;BME280;8498;52.516;13.790;2023-04-09T22:03:34;102118.09;;;6.32;90.03
17781;BME280;8498;52.516;13.790;2023-04-09T22:08:57;102119.09;;;6.26;89.46
17781;BME280;8498;52.516;13.790;2023-04-09T22:14:20;102114.88;;;6.20;89.56
17781;BME280;8498;52.516;13.790;2023-04-09T22:19:42;102115.06;;;6.13;90.48
17781;BME280;8498;52.516;13.790;2023-04-09T22:25:05;102109.91;;;6.08;89.83
17781;BME280;8498;52.516;13.790;2023-04-09T22:30:28;102113.69;;;5.98;91.01
17781;BME280;8498;52.516;13.790;2023-04-09T22:35:50;102133.28;;;5.89;91.72
17781;BME280;8498;52.516;13.790;2023-04-09T22:41:12;102124.59;;;5.83;91.54
17781;BME280;8498;52.516;13.790;2023-04-09T22:46:37;102130.91;;;5.77;91.22
17781;BME280;8498;52.516;13.790;2023-04-09T22:51:59;102139.06;;;5.68;91.34
17781;BME280;8498;52.516;13.790;2023-04-09T22:57:22;102127.84;;;5.60;90.39
17781;BME280;8498;52.516;13.790;2023-04-09T23:02:44;102127.91;;;5.57;90.79
17781;BME280;8498;52.516;13.790;2023-04-09T23:08:09;102138.56;;;5.51;92.02
17781;BME280;8498;52.516;13.790;2023-04-09T23:13:31;102133.63;;;5.39;91.93
17781;BME280;8498;52.516;13.790;2023-04-09T23:18:53;102137.19;;;5.36;92.33
17781;BME280;8498;52.516;13.790;2023-04-09T23:24:16;102128.41;;;5.36;91.72
17781;BME280;8498;52.516;13.790;2023-04-09T23:29:40;102130.19;;;5.35;90.66
17781;BME280;8498;52.516;13.790;2023-04-09T23:35:03;102117.91;;;5.34;90.59
17781;BME280;8498;52.516;13.790;2023-04-09T23:40:25;102119.81;;;5.28;90.66
17781;BME280;8498;52.516;13.790;2023-04-09T23:45:48;102127.94;;;5.19;91.15
17781;BME280;8498;52.516;13.790;2023-04-09T23:51:18;102119.25;;;5.13;91.20
17781;BME280;8498;52.516;13.790;2023-04-09T23:56:41;102115.03;;;5.06;91.17
